Time;durP1;ratioP1;P1;durP2;ratioP2;P2;SDS_P1;SDS_P2;PMS_P1;PMS_P2;Temp;Humidity;BMP_temperature;BMP_pressure;BME280_temperature;BME280_humidity;BME280_pressure;Samples;Min_cycle;Max_cycle;Signal;HPM_P1;HPM_P2
2021/12/04 00:00:58;;;;;;;13.10;9.50;;;1.60;1.00;;;;;;5070093;28;20221;-86
2021/12/04 00:03:27;;;;;;;11.18;9.50;;;1.60;1.00;;;;;;5065172;28;20221;-85
2021/12/04 00:06:03;;;;;;;10.68;9.55;;;1.70;1.00;;;;;;5071851;28;20408;-86
2021/12/04 00:08:36;;;;;;;14.73;9.18;;;1.70;1.00;;;;;;5071885;28;20225;-86
2021/12/04 00:11:10;;;;;;;14.05;9.05;;;1.70;1.00;;;;;;5065248;28;22000;-87
2021/12/04 00:22:09;;;;;;;12.95;9.40;;;1.70;1.00;;;;;;5246640;22;20230;-86
2021/12/04 00:30:08;;;;;;;11.45;9.85;;;1.70;1.00;;;;;;5139524;22;20221;-86
2021/12/04 00:50:05;;;;;;;14.32;9.85;;;1.80;1.00;;;;;;5040498;28;20265;-86
2021/12/04 00:52:43;;;;;;;16.13;10.93;;;1.80;1.00;;;;;;5033972;28;20225;-86
2021/12/04 00:55:13;;;;;;;14.43;11.48;;;1.80;1.00;;;;;;5027411;28;20219;-88
2021/12/04 00:57:59;;;;;;;15.85;11.00;;;1.80;1.00;;;;;;5035109;28;20214;-85
2021/12/04 01:00:32;;;;;;;12.77;10.25;;;1.80;1.00;;;;;;5044674;28;20290;-86
2021/12/04 01:03:01;;;;;;;12.82;11.07;;;1.80;1.00;;;;;;5027906;28;20316;-86
2021/12/04 01:05:36;;;;;;;15.70;11.80;;;1.80;1.00;;;;;;5052306;28;20222;-86
2021/12/04 01:08:05;;;;;;;12.27;9.88;;;1.80;1.00;;;;;;5015327;28;20229;-87
2021/12/04 01:13:31;;;;;;;13.63;10.32;;;1.90;1.00;;;;;;5045173;28;20226;-86
2021/12/04 01:16:01;;;;;;;12.43;11.15;;;1.90;1.00;;;;;;5017075;28;20640;-87
2021/12/04 01:18:35;;;;;;;14.18;11.00;;;1.90;1.00;;;;;;5020127;28;20413;-86
2021/12/04 01:21:04;;;;;;;14.30;11.55;;;1.80;1.00;;;;;;5022741;28;20226;-87
2021/12/04 01:23:37;;;;;;;14.98;11.23;;;1.90;1.00;;;;;;5037363;28;20718;-86
2021/12/04 01:26:09;;;;;;;15.57;12.27;;;1.80;1.00;;;;;;5017762;28;20309;-86
2021/12/04 01:28:39;;;;;;;12.98;10.80;;;1.90;1.00;;;;;;5001668;28;20223;-85
2021/12/04 01:31:11;;;;;;;15.68;12.05;;;1.90;1.00;;;;;;5002926;28;20238;-87
2021/12/04 01:33:48;;;;;;;16.77;12.05;;;1.90;1.00;;;;;;5020883;28;20299;-86
2021/12/04 01:36:19;;;;;;;11.27;10.07;;;1.90;1.00;;;;;;5006371;28;20254;-87
2021/12/04 01:39:13;;;;;;;18.75;12.57;;;1.90;1.00;;;;;;5001798;28;20250;-87
2021/12/04 01:44:36;;;;;;;14.80;12.48;;;1.90;1.00;;;;;;5007884;28;20227;-85
2021/12/04 01:47:14;;;;;;;12.73;10.52;;;1.90;1.00;;;;;;5026799;28;20282;-84
2021/12/04 01:49:51;;;;;;;14.80;11.57;;;1.90;1.00;;;;;;5022355;28;20960;-85
2021/12/04 01:55:14;;;;;;;13.80;11.90;;;1.90;1.00;;;;;;5481739;23;20241;-85
2021/12/04 01:57:51;;;;;;;14.10;12.40;;;1.90;1.00;;;;;;5042371;28;20233;-86
2021/12/04 02:00:29;;;;;;;14.98;12.48;;;1.90;1.00;;;;;;5033317;28;20312;-85
2021/12/04 02:02:59;;;;;;;15.32;12.82;;;1.90;1.00;;;;;;5037364;28;20241;-85
2021/12/04 02:05:28;;;;;;;14.82;12.75;;;1.90;1.00;;;;;;5027392;28;20277;-87
2021/12/04 02:07:56;;;;;;;14.95;12.15;;;1.90;1.00;;;;;;5022792;28;20222;-85
2021/12/04 02:10:23;;;;;;;17.75;12.68;;;1.90;1.00;;;;;;5018912;28;20219;-86
2021/12/04 02:13:00;;;;;;;14.27;12.50;;;1.90;1.00;;;;;;5032270;28;20249;-86
2021/12/04 02:15:28;;;;;;;16.55;13.13;;;2.00;1.00;;;;;;5031884;28;20234;-86
2021/12/04 02:17:56;;;;;;;16.30;13.77;;;2.00;1.00;;;;;;5015058;28;20689;-86
2021/12/04 02:20:27;;;;;;;15.07;11.85;;;2.00;1.00;;;;;;5014624;28;20277;-86
2021/12/04 02:23:02;;;;;;;15.57;12.02;;;2.00;1.00;;;;;;5033440;28;20230;-86
2021/12/04 02:25:30;;;;;;;18.77;12.77;;;2.00;1.00;;;;;;5037363;28;20544;-85
2021/12/04 02:28:01;;;;;;;15.52;12.23;;;2.00;1.00;;;;;;5042372;28;20227;-86
2021/12/04 02:30:35;;;;;;;13.45;12.00;;;2.00;1.00;;;;;;5028486;28;20223;-87
2021/12/04 02:33:12;;;;;;;17.60;12.93;;;2.00;1.00;;;;;;5022447;28;20254;-87
2021/12/04 02:35:42;;;;;;;13.32;11.90;;;2.00;1.00;;;;;;5022564;28;20294;-87
2021/12/04 02:38:12;;;;;;;15.25;12.90;;;2.00;1.00;;;;;;5018439;28;20779;-87
2021/12/04 02:40:47;;;;;;;13.32;11.70;;;2.00;1.00;;;;;;5046531;28;20206;-86
2021/12/04 02:43:17;;;;;;;14.50;12.00;;;2.00;1.00;;;;;;5039176;28;20212;-86
2021/12/04 02:45:44;;;;;;;15.50;12.68;;;2.10;1.00;;;;;;5034431;28;20214;-86
2021/12/04 02:48:12;;;;;;;14.40;12.00;;;2.10;1.00;;;;;;5039666;28;20225;-85
2021/12/04 02:50:44;;;;;;;13.48;11.75;;;2.10;1.00;;;;;;5036152;28;20253;-86
2021/12/04 02:53:12;;;;;;;14.57;12.55;;;2.10;1.00;;;;;;5051457;28;20210;-85
2021/12/04 02:55:40;;;;;;;17.10;13.38;;;2.00;1.00;;;;;;5025630;28;20230;-86
2021/12/04 02:58:14;;;;;;;16.83;13.18;;;2.00;1.00;;;;;;5029517;28;20292;-86
2021/12/04 03:00:47;;;;;;;17.30;13.48;;;2.10;1.00;;;;;;5020175;28;20223;-86
2021/12/04 03:03:20;;;;;;;14.27;12.70;;;2.10;1.00;;;;;;5026285;28;20222;-85
2021/12/04 03:05:51;;;;;;;13.88;11.95;;;2.10;1.00;;;;;;5028908;28;20221;-85
2021/12/04 03:08:19;;;;;;;15.48;12.05;;;2.10;1.00;;;;;;5009758;28;20326;-85
2021/12/04 03:10:48;;;;;;;15.25;12.90;;;2.10;1.00;;;;;;5023572;28;20218;-85
2021/12/04 03:13:17;;;;;;;15.68;11.80;;;2.10;1.00;;;;;;5027995;28;20276;-86
2021/12/04 03:15:48;;;;;;;13.80;12.40;;;2.10;1.00;;;;;;5010583;28;20223;-87
2021/12/04 03:18:15;;;;;;;15.35;12.75;;;2.10;1.00;;;;;;5027589;28;20329;-86
2021/12/04 03:20:45;;;;;;;14.02;12.50;;;2.10;1.00;;;;;;5032823;28;20232;-86
2021/12/04 03:23:26;;;;;;;15.00;12.32;;;2.10;1.00;;;;;;5024973;28;20274;-86
2021/12/04 03:25:58;;;;;;;14.50;12.23;;;2.20;1.00;;;;;;5007685;28;20257;-86
2021/12/04 03:28:32;;;;;;;16.75;12.77;;;2.20;1.00;;;;;;5034870;28;20254;-86
2021/12/04 03:31:04;;;;;;;14.18;11.70;;;2.20;1.00;;;;;;5007574;28;20210;-89
2021/12/04 03:41:59;;;;;;;14.88;11.52;;;2.10;1.00;;;;;;5027466;28;20275;-86
2021/12/04 03:44:33;;;;;;;15.95;13.02;;;2.10;1.00;;;;;;5021888;28;20230;-86
2021/12/04 03:47:04;;;;;;;13.68;12.23;;;2.10;1.00;;;;;;5019168;28;20241;-85
2021/12/04 03:49:37;;;;;;;17.48;12.73;;;2.10;1.00;;;;;;5007430;28;20664;-85
2021/12/04 03:52:17;;;;;;;17.58;11.98;;;2.10;1.00;;;;;;5020823;28;20340;-86
2021/12/04 03:54:46;;;;;;;12.73;11.25;;;2.10;1.00;;;;;;5019911;28;20236;-85
2021/12/04 03:57:15;;;;;;;17.40;12.05;;;2.10;1.00;;;;;;5002909;28;20353;-85
2021/12/04 03:59:49;;;;;;;18.25;12.65;;;2.10;1.00;;;;;;5025869;28;20230;-86
2021/12/04 04:02:18;;;;;;;23.40;13.05;;;2.10;1.00;;;;;;5004790;28;20229;-86
2021/12/04 04:04:46;;;;;;;15.52;12.60;;;2.10;1.00;;;;;;5003640;28;20230;-85
2021/12/04 04:07:14;;;;;;;15.88;12.13;;;2.10;1.00;;;;;;5020098;28;20222;-85
2021/12/04 04:09:41;;;;;;;14.23;12.25;;;2.20;1.00;;;;;;5012043;28;20230;-85
2021/12/04 04:12:10;;;;;;;17.13;13.50;;;2.00;1.00;;;;;;5004872;28;20241;-86
2021/12/04 04:14:47;;;;;;;16.65;12.88;;;2.10;1.00;;;;;;5030248;28;20226;-86
2021/12/04 04:17:19;;;;;;;19.02;12.77;;;2.10;1.00;;;;;;5023319;28;20700;-86
2021/12/04 04:19:46;;;;;;;19.42;14.35;;;2.10;1.00;;;;;;5009025;28;20231;-85
2021/12/04 04:22:18;;;;;;;17.73;13.43;;;2.10;1.00;;;;;;5007834;28;20772;-86
2021/12/04 04:24:47;;;;;;;15.43;12.93;;;2.10;1.00;;;;;;5007506;28;20770;-86
2021/12/04 04:27:18;;;;;;;16.98;13.50;;;2.10;1.00;;;;;;5010820;28;20321;-85
2021/12/04 04:29:54;;;;;;;17.17;13.18;;;2.10;1.00;;;;;;5027114;28;20211;-85
2021/12/04 04:32:24;;;;;;;17.77;14.35;;;2.10;1.00;;;;;;5025962;28;20221;-86
2021/12/04 04:34:55;;;;;;;15.60;12.88;;;2.10;1.00;;;;;;5034984;28;20227;-85
2021/12/04 04:37:33;;;;;;;15.48;12.95;;;2.10;1.00;;;;;;5021799;28;20226;-85
2021/12/04 05:00:02;;;;;;;16.50;12.50;;;2.20;1.00;;;;;;5045302;28;20226;-86
2021/12/04 05:02:38;;;;;;;13.77;11.95;;;2.20;1.00;;;;;;5024113;28;20248;-85
2021/12/04 05:11:03;;;;;;;15.30;12.82;;;2.10;1.00;;;;;;5032713;28;20282;-85
2021/12/04 05:13:30;;;;;;;14.30;11.65;;;2.10;1.00;;;;;;5017508;28;20233;-85
2021/12/04 05:16:00;;;;;;;17.10;12.35;;;2.10;1.00;;;;;;5007185;28;20741;-85
2021/12/04 05:18:39;;;;;;;14.55;12.95;;;2.10;1.00;;;;;;5007444;28;20230;-87
2021/12/04 05:21:08;;;;;;;15.70;12.93;;;2.10;1.00;;;;;;5026056;28;20222;-87
2021/12/04 05:23:38;;;;;;;14.25;12.40;;;2.20;1.00;;;;;;5028724;28;20218;-86
2021/12/04 05:26:10;;;;;;;14.10;12.27;;;2.10;1.00;;;;;;5023484;28;20264;-85
2021/12/04 05:28:38;;;;;;;12.70;11.45;;;2.10;1.00;;;;;;5029637;28;20295;-86
2021/12/04 05:31:07;;;;;;;14.00;11.70;;;2.10;1.00;;;;;;5023772;28;20288;-86
2021/12/04 05:33:35;;;;;;;13.93;12.20;;;2.00;1.00;;;;;;5018104;28;20329;-86
2021/12/04 05:36:03;;;;;;;18.10;12.88;;;2.10;1.00;;;;;;5011961;28;20238;-85
2021/12/04 05:38:31;;;;;;;15.15;12.85;;;2.00;1.00;;;;;;5032934;28;20246;-86
2021/12/04 05:41:02;;;;;;;14.73;11.95;;;2.00;1.00;;;;;;5028093;28;20254;-85
2021/12/04 05:43:29;;;;;;;13.07;11.60;;;2.00;1.00;;;;;;5017928;28;20233;-87
2021/12/04 05:46:04;;;;;;;16.40;12.18;;;2.00;1.00;;;;;;5034406;28;20234;-87
2021/12/04 05:48:40;;;;;;;14.95;12.30;;;2.00;1.00;;;;;;5007445;28;20229;-86
2021/12/04 05:54:03;;;;;;;13.75;10.80;;;2.00;1.00;;;;;;5028073;28;20233;-86
2021/12/04 05:56:35;;;;;;;12.77;10.75;;;2.00;1.00;;;;;;5032043;28;20356;-86
2021/12/04 05:59:03;;;;;;;12.13;10.90;;;2.00;1.00;;;;;;5008765;28;20248;-87
2021/12/04 06:01:31;;;;;;;13.88;11.05;;;2.00;1.00;;;;;;5022433;28;20213;-86
2021/12/04 06:04:02;;;;;;;13.00;11.60;;;1.90;1.00;;;;;;5030901;28;20340;-85
2021/12/04 06:06:30;;;;;;;11.40;9.00;;;2.00;1.00;;;;;;5035669;28;20295;-85
2021/12/04 06:08:59;;;;;;;13.27;11.02;;;2.00;1.00;;;;;;5033925;28;21420;-85
2021/12/04 06:11:29;;;;;;;12.23;10.55;;;2.00;1.00;;;;;;5005671;28;20257;-86
2021/12/04 06:13:59;;;;;;;12.55;10.10;;;2.00;1.00;;;;;;5020458;28;20261;-85
2021/12/04 06:16:26;;;;;;;12.20;9.85;;;2.00;1.00;;;;;;5021082;28;20848;-86
2021/12/04 06:18:55;;;;;;;11.85;10.65;;;1.90;1.00;;;;;;5004671;28;20229;-85
2021/12/04 06:24:12;;;;;;;11.63;10.38;;;2.00;1.00;;;;;;5001278;28;20228;-85
2021/12/04 06:26:41;;;;;;;12.13;10.65;;;2.00;1.00;;;;;;5009008;28;20222;-86
2021/12/04 06:29:10;;;;;;;11.75;10.52;;;2.10;1.00;;;;;;5032863;28;20717;-85
2021/12/04 06:31:40;;;;;;;13.80;11.15;;;2.10;1.00;;;;;;5016389;28;20237;-85
2021/12/04 06:34:17;;;;;;;11.57;10.23;;;2.10;1.00;;;;;;5020028;28;20242;-86
2021/12/04 06:36:48;;;;;;;17.00;11.18;;;2.00;1.00;;;;;;5023126;28;20321;-87
2021/12/04 06:39:17;;;;;;;15.93;10.98;;;2.10;1.00;;;;;;5043384;28;20273;-86
2021/12/04 06:41:45;;;;;;;12.40;10.20;;;2.10;1.00;;;;;;5049389;28;20221;-86
2021/12/04 06:44:19;;;;;;;11.98;10.45;;;2.00;1.00;;;;;;5026025;28;20241;-86
2021/12/04 06:46:50;;;;;;;13.80;10.55;;;2.00;1.00;;;;;;5030534;28;20270;-87
2021/12/04 06:49:21;;;;;;;12.10;9.95;;;2.00;1.00;;;;;;5014094;28;20276;-86
2021/12/04 06:51:55;;;;;;;13.23;11.00;;;2.00;1.00;;;;;;5011159;28;21521;-87
2021/12/04 06:54:30;;;;;;;13.45;10.02;;;2.00;1.00;;;;;;5004886;28;21550;-87
2021/12/04 06:56:57;;;;;;;15.15;12.38;;;2.00;1.00;;;;;;5009922;28;20255;-86
2021/12/04 06:59:30;;;;;;;13.13;11.70;;;2.00;1.00;;;;;;5016068;28;21337;-86
2021/12/04 07:01:59;;;;;;;13.95;11.25;;;2.00;1.00;;;;;;5058362;28;20230;-86
2021/12/04 07:04:30;;;;;;;14.48;11.57;;;2.10;1.00;;;;;;5031076;28;20238;-85
2021/12/04 07:07:08;;;;;;;14.80;11.52;;;2.10;1.00;;;;;;5008262;28;20289;-85
2021/12/04 07:09:38;;;;;;;12.50;11.18;;;2.10;1.00;;;;;;5013781;28;21092;-85
2021/12/04 07:12:08;;;;;;;14.32;12.25;;;2.10;1.00;;;;;;5014931;28;20230;-85
2021/12/04 07:14:36;;;;;;;12.48;11.18;;;2.00;1.00;;;;;;5031732;28;20237;-87
2021/12/04 07:17:12;;;;;;;14.90;11.20;;;2.10;1.00;;;;;;5027927;28;20290;-86
2021/12/04 07:19:41;;;;;;;13.07;10.80;;;2.10;1.00;;;;;;5037380;28;20219;-85
2021/12/04 07:22:11;;;;;;;11.73;10.52;;;2.10;1.00;;;;;;5042720;28;20241;-85
2021/12/04 07:24:38;;;;;;;11.80;9.50;;;2.10;1.00;;;;;;5034024;28;20215;-85
2021/12/04 07:27:07;;;;;;;13.05;10.48;;;2.10;1.00;;;;;;5014923;28;20225;-85
2021/12/04 07:29:34;;;;;;;11.85;9.85;;;2.10;1.00;;;;;;5031408;28;20231;-76
2021/12/04 07:32:00;;;;;;;12.05;10.13;;;2.10;1.00;;;;;;5020176;28;20223;-79
2021/12/04 07:34:27;;;;;;;13.35;10.93;;;2.20;1.00;;;;;;5022038;28;20277;-77
2021/12/04 07:36:56;;;;;;;11.88;10.68;;;2.20;1.00;;;;;;5017902;28;20227;-78
2021/12/04 07:39:24;;;;;;;11.70;10.32;;;2.20;1.00;;;;;;5024722;28;20221;-78
2021/12/04 07:41:51;;;;;;;10.70;9.40;;;2.20;1.00;;;;;;5018492;28;20234;-77
2021/12/04 07:44:18;;;;;;;11.23;9.45;;;2.20;1.00;;;;;;5038803;28;20230;-77
2021/12/04 07:46:45;;;;;;;10.63;9.25;;;2.20;1.00;;;;;;5028507;28;20222;-78
2021/12/04 07:49:12;;;;;;;11.30;9.00;;;2.30;1.00;;;;;;5026970;28;20914;-80
2021/12/04 07:51:39;;;;;;;11.15;9.70;;;2.30;1.00;;;;;;5012330;28;20222;-77
2021/12/04 07:54:06;;;;;;;11.73;9.05;;;2.40;1.00;;;;;;5044193;28;21062;-79
2021/12/04 07:56:34;;;;;;;12.30;9.15;;;2.40;1.00;;;;;;5055071;28;20210;-79
2021/12/04 07:59:01;;;;;;;10.20;9.20;;;2.50;1.00;;;;;;5049771;28;20238;-77
2021/12/04 08:01:28;;;;;;;13.30;8.57;;;2.50;1.00;;;;;;5043891;28;20234;-79
2021/12/04 08:03:55;;;;;;;12.32;9.88;;;2.50;1.00;;;;;;5055625;28;20215;-77
2021/12/04 08:06:24;;;;;;;10.23;8.10;;;2.40;1.00;;;;;;5053125;28;20351;-76
2021/12/04 08:08:58;;;;;;;11.35;9.38;;;2.40;1.00;;;;;;5047297;28;20218;-77
2021/12/04 08:11:26;;;;;;;10.32;8.45;;;2.50;1.00;;;;;;5043718;28;20287;-77
2021/12/04 08:13:54;;;;;;;10.57;8.10;;;2.40;1.00;;;;;;5031032;28;20226;-77
2021/12/04 08:16:25;;;;;;;10.10;9.10;;;2.40;1.00;;;;;;5030391;28;20259;-77
2021/12/04 08:18:52;;;;;;;11.45;8.43;;;2.40;1.00;;;;;;5046285;28;20225;-78
2021/12/04 08:21:19;;;;;;;12.05;9.20;;;2.40;1.00;;;;;;5053018;28;20229;-77
2021/12/04 08:23:46;;;;;;;9.68;8.75;;;2.50;1.00;;;;;;5027037;28;20327;-76
2021/12/04 08:26:14;;;;;;;10.57;8.40;;;2.50;1.00;;;;;;5043623;28;20269;-77
2021/12/04 08:28:41;;;;;;;8.75;7.78;;;2.60;1.00;;;;;;5047139;28;21584;-77
2021/12/04 08:31:09;;;;;;;9.00;8.10;;;2.60;1.00;;;;;;5048308;28;20225;-76
2021/12/04 08:33:36;;;;;;;10.23;9.13;;;2.50;1.00;;;;;;5033882;28;20226;-76
2021/12/04 08:36:04;;;;;;;11.07;8.68;;;2.60;1.00;;;;;;5036439;28;20229;-78
2021/12/04 08:38:32;;;;;;;10.40;8.43;;;2.60;1.00;;;;;;5031133;28;20207;-76
2021/12/04 08:41:01;;;;;;;10.40;8.45;;;2.60;1.00;;;;;;5033122;28;20227;-77
2021/12/04 08:43:28;;;;;;;12.15;8.60;;;2.60;1.00;;;;;;5027434;28;20281;-78
2021/12/04 08:45:56;;;;;;;10.60;8.43;;;2.70;1.00;;;;;;5028923;28;20283;-76
2021/12/04 08:48:24;;;;;;;11.15;8.27;;;2.80;1.00;;;;;;5027882;28;20222;-77
2021/12/04 08:50:50;;;;;;;8.35;7.50;;;2.80;1.00;;;;;;5017183;28;20237;-78
2021/12/04 08:53:17;;;;;;;11.18;8.25;;;2.80;1.00;;;;;;5020758;28;20706;-78
2021/12/04 08:55:45;;;;;;;9.80;8.30;;;2.90;1.00;;;;;;5038717;28;20234;-77
2021/12/04 08:58:13;;;;;;;9.30;7.47;;;2.90;1.00;;;;;;5038165;28;20253;-77
2021/12/04 09:00:46;;;;;;;9.52;8.40;;;3.00;1.00;;;;;;5036115;28;20229;-77
2021/12/04 09:03:13;;;;;;;12.00;8.68;;;3.00;1.00;;;;;;5037553;28;20253;-76
2021/12/04 09:05:41;;;;;;;10.95;8.20;;;3.00;1.00;;;;;;5036341;28;20230;-77
2021/12/04 09:08:09;;;;;;;11.27;9.48;;;3.00;1.00;;;;;;5032435;28;20225;-78
2021/12/04 09:10:41;;;;;;;15.68;11.50;;;3.10;1.00;;;;;;5030370;28;20225;-76
2021/12/04 09:13:08;;;;;;;10.07;8.55;;;3.20;1.00;;;;;;5024941;28;20226;-79
2021/12/04 09:15:36;;;;;;;9.63;8.63;;;3.10;1.00;;;;;;5018850;28;20238;-78
2021/12/04 09:18:04;;;;;;;9.80;8.75;;;3.10;1.00;;;;;;5015678;28;20222;-80
2021/12/04 09:20:32;;;;;;;10.27;8.82;;;3.10;1.00;;;;;;5014214;28;20221;-78
2021/12/04 09:23:02;;;;;;;10.82;9.00;;;3.10;1.00;;;;;;5018311;28;20265;-79
2021/12/04 09:25:31;;;;;;;10.90;9.30;;;3.00;1.00;;;;;;5015026;28;20222;-80
2021/12/04 09:28:12;;;;;;;10.90;9.23;;;3.00;1.00;;;;;;5017125;28;20233;-82
2021/12/04 09:36:30;;;;;;;11.98;10.00;;;2.90;1.00;;;;;;5002770;28;20234;-78
2021/12/04 10:01:19;;;;;;;12.98;10.15;;;2.80;1.00;;;;;;5023670;28;20787;-79
2021/12/04 10:15:42;;;;;;;11.57;10.38;;;2.70;1.00;;;;;;5003903;28;20242;-78
2021/12/04 10:21:08;;;;;;;10.65;9.15;;;2.90;1.00;;;;;;5033453;28;20241;-77
2021/12/04 10:23:53;;;;;;;14.02;10.20;;;3.00;1.00;;;;;;5027193;28;20222;-78
2021/12/04 10:34:45;;;;;;;11.00;9.73;;;3.10;1.00;;;;;;5028887;28;20307;-78
2021/12/04 10:37:17;;;;;;;11.35;10.25;;;3.10;1.00;;;;;;5034292;28;20230;-78
2021/12/04 10:39:44;;;;;;;12.38;11.18;;;3.20;1.00;;;;;;5025147;28;20237;-80
2021/12/04 10:42:15;;;;;;;9.55;8.50;;;3.20;1.00;;;;;;5023122;28;20226;-78
2021/12/04 10:44:49;;;;;;;11.80;9.93;;;3.20;1.00;;;;;;5021345;28;20228;-77
2021/12/04 10:47:22;;;;;;;10.63;9.52;;;3.20;1.00;;;;;;5022318;28;20225;-76
2021/12/04 10:49:56;;;;;;;11.77;10.48;;;3.30;1.00;;;;;;5019415;28;20232;-78
2021/12/04 10:52:33;;;;;;;11.85;9.30;;;3.30;1.00;;;;;;5026594;28;20536;-79
2021/12/04 10:55:15;;;;;;;10.88;9.77;;;3.30;1.00;;;;;;5004364;28;20245;-77
2021/12/04 10:58:14;;;;;;;11.65;9.13;;;3.40;1.00;;;;;;5030276;28;20222;-77
2021/12/04 11:00:48;;;;;;;10.52;9.52;;;3.40;1.00;;;;;;5009103;28;20238;-78
2021/12/04 11:03:24;;;;;;;11.45;10.25;;;3.40;1.00;;;;;;5025209;28;20251;-78
2021/12/04 11:26:02;;;;;;;13.07;11.38;;;3.20;1.00;;;;;;5013703;28;20237;-77
2021/12/04 11:37:08;;;;;;;13.80;12.40;;;3.20;1.00;;;;;;5017931;28;20222;-78
2021/12/04 11:42:29;;;;;;;14.60;12.00;;;3.30;1.00;;;;;;5002455;28;20278;-79
2021/12/04 11:45:09;;;;;;;17.40;12.70;;;3.40;1.00;;;;;;5027689;28;20344;-78
2021/12/04 11:47:38;;;;;;;13.05;11.38;;;3.40;1.00;;;;;;5023282;28;20235;-80
2021/12/04 11:50:18;;;;;;;15.60;13.35;;;3.40;1.00;;;;;;5018907;28;20226;-78
2021/12/04 11:52:47;;;;;;;15.95;12.77;;;3.50;1.00;;;;;;5027748;28;20378;-78
2021/12/04 11:55:14;;;;;;;14.80;12.88;;;3.50;1.00;;;;;;5024184;28;20951;-82
2021/12/04 11:57:42;;;;;;;15.80;13.10;;;3.60;1.00;;;;;;5020572;28;20359;-77
2021/12/04 12:00:14;;;;;;;14.18;11.95;;;3.60;1.00;;;;;;5014618;28;20218;-78
2021/12/04 12:02:42;;;;;;;14.48;12.77;;;3.70;1.00;;;;;;5021135;28;20210;-78
2021/12/04 12:05:18;;;;;;;18.08;13.15;;;3.60;1.00;;;;;;5023411;28;20299;-78
2021/12/04 12:07:54;;;;;;;16.55;13.40;;;3.70;1.00;;;;;;5017385;28;20866;-78
2021/12/04 12:10:23;;;;;;;15.25;12.77;;;3.60;1.00;;;;;;5024428;28;20226;-80
2021/12/04 12:12:56;;;;;;;14.98;11.85;;;3.60;1.00;;;;;;5028135;28;20774;-77
2021/12/04 12:15:30;;;;;;;16.30;12.70;;;3.50;1.00;;;;;;5014250;28;20329;-78
2021/12/04 12:17:59;;;;;;;13.75;10.95;;;3.40;1.00;;;;;;5025285;28;20301;-80
2021/12/04 12:20:43;;;;;;;14.88;12.35;;;3.40;1.00;;;;;;5027493;28;20285;-78
2021/12/04 12:23:13;;;;;;;11.80;10.43;;;3.30;1.00;;;;;;5029097;28;20356;-77
2021/12/04 12:25:59;;;;;;;14.23;12.13;;;3.20;1.00;;;;;;5009640;28;20293;-78
2021/12/04 12:37:15;;;;;;;11.98;10.63;;;3.40;1.00;;;;;;5025771;28;20366;-78
2021/12/04 12:39:52;;;;;;;12.43;10.70;;;3.50;1.00;;;;;;5025398;28;20234;-78
2021/12/04 12:42:32;;;;;;;14.45;12.60;;;3.50;1.00;;;;;;5024586;28;20237;-79
2021/12/04 12:45:17;;;;;;;12.48;10.27;;;3.60;1.00;;;;;;5008025;28;20276;-82
2021/12/04 12:47:49;;;;;;;12.77;10.57;;;3.70;1.00;;;;;;5027838;28;20222;-81
2021/12/04 12:50:26;;;;;;;13.50;11.05;;;3.70;1.00;;;;;;5021138;28;20222;-79
2021/12/04 12:53:02;;;;;;;14.80;12.38;;;3.80;1.00;;;;;;5022883;28;20290;-79
2021/12/04 12:55:34;;;;;;;13.45;10.73;;;3.80;1.00;;;;;;5019111;28;20300;-80
2021/12/04 12:58:14;;;;;;;11.63;10.35;;;3.70;1.00;;;;;;5023581;28;20239;-79
2021/12/04 13:11:55;;;;;;;8.80;7.55;;;3.50;1.00;;;;;;5020505;28;20217;-76
2021/12/04 13:14:24;;;;;;;10.05;8.30;;;3.50;1.00;;;;;;5020294;28;20316;-79
2021/12/04 13:16:58;;;;;;;11.80;9.50;;;3.50;1.00;;;;;;5014270;28;20246;-79
2021/12/04 13:19:26;;;;;;;14.75;12.25;;;3.50;1.00;;;;;;5019739;28;20226;-80
2021/12/04 13:21:54;;;;;;;13.30;11.05;;;3.40;1.00;;;;;;5014240;28;20233;-80
2021/12/04 13:24:25;;;;;;;12.38;11.18;;;3.50;1.00;;;;;;5000771;28;20244;-79
2021/12/04 13:26:54;;;;;;;13.02;11.27;;;3.50;1.00;;;;;;5013478;28;20307;-80
2021/12/04 13:29:26;;;;;;;11.05;9.30;;;3.50;1.00;;;;;;5016061;28;20281;-78
2021/12/04 13:31:54;;;;;;;18.50;14.30;;;3.50;1.00;;;;;;5012952;28;20305;-79
2021/12/04 13:34:24;;;;;;;13.98;11.15;;;3.50;1.00;;;;;;5001550;28;20325;-77
2021/12/04 13:36:55;;;;;;;16.45;11.70;;;3.60;1.00;;;;;;5022463;28;20541;-79
2021/12/04 13:39:23;;;;;;;13.13;10.75;;;3.70;1.00;;;;;;5021863;28;20231;-79
2021/12/04 13:41:55;;;;;;;14.27;10.40;;;3.70;1.00;;;;;;5015481;28;20269;-78
2021/12/04 13:44:27;;;;;;;12.18;10.02;;;3.80;1.00;;;;;;5023653;28;20368;-76
2021/12/04 13:47:00;;;;;;;14.27;11.73;;;3.70;1.00;;;;;;5023057;28;20286;-78
2021/12/04 13:49:33;;;;;;;13.60;11.40;;;3.80;1.00;;;;;;5031749;28;20242;-76
2021/12/04 13:52:05;;;;;;;13.43;11.13;;;3.80;1.00;;;;;;5029898;28;21042;-79
2021/12/04 13:54:37;;;;;;;14.93;13.35;;;3.90;1.00;;;;;;5031442;28;20226;-79
2021/12/04 13:57:10;;;;;;;19.77;14.38;;;3.80;1.00;;;;;;5032352;28;20229;-75
2021/12/04 13:59:38;;;;;;;16.25;14.18;;;3.70;1.00;;;;;;5040434;28;20257;-77
2021/12/04 14:02:05;;;;;;;19.58;14.75;;;3.70;1.00;;;;;;5036949;28;20317;-77
2021/12/04 14:04:33;;;;;;;19.73;14.95;;;3.80;1.00;;;;;;5043165;28;20625;-77
2021/12/04 14:07:03;;;;;;;17.48;13.80;;;3.70;1.00;;;;;;5041499;28;20234;-78
2021/12/04 14:09:34;;;;;;;21.10;14.90;;;3.70;1.00;;;;;;5038900;28;22466;-78
2021/12/04 14:12:02;;;;;;;22.70;17.50;;;3.70;1.00;;;;;;5043088;28;20219;-78
2021/12/04 14:14:32;;;;;;;21.15;16.20;;;3.60;1.00;;;;;;5046326;28;20266;-81
2021/12/04 14:17:06;;;;;;;22.58;17.30;;;3.60;1.00;;;;;;5051130;28;20433;-81
2021/12/04 14:19:33;;;;;;;19.30;15.63;;;3.50;1.00;;;;;;5027181;28;20268;-80
2021/12/04 14:22:02;;;;;;;25.48;16.55;;;3.40;1.00;;;;;;5049454;28;20269;-80
2021/12/04 14:24:32;;;;;;;21.92;16.35;;;3.50;1.00;;;;;;5029728;28;20684;-79
2021/12/04 14:27:04;;;;;;;24.15;15.70;;;3.50;1.00;;;;;;5042712;28;20233;-78
2021/12/04 14:29:34;;;;;;;19.23;16.17;;;3.60;1.00;;;;;;5040523;28;20723;-79
2021/12/04 14:32:02;;;;;;;21.40;18.15;;;3.60;1.00;;;;;;5011905;28;20673;-81
2021/12/04 14:34:30;;;;;;;21.52;17.92;;;3.60;1.00;;;;;;5024123;28;20230;-82
2021/12/04 14:37:03;;;;;;;26.00;16.13;;;3.50;1.00;;;;;;5006922;28;20238;-79
2021/12/04 14:39:30;;;;;;;20.38;16.70;;;3.50;1.00;;;;;;5029111;28;20274;-80
2021/12/04 14:41:58;;;;;;;20.48;16.77;;;3.40;1.00;;;;;;5036183;28;20268;-80
2021/12/04 14:44:26;;;;;;;20.85;16.50;;;3.40;1.00;;;;;;5019951;28;20234;-79
2021/12/04 14:46:54;;;;;;;23.73;17.17;;;3.40;1.00;;;;;;5024969;28;20258;-83
2021/12/04 14:49:21;;;;;;;19.67;15.50;;;3.50;1.00;;;;;;5021658;28;20218;-77
2021/12/04 14:51:48;;;;;;;22.17;17.05;;;3.40;1.00;;;;;;5023872;28;20223;-80
2021/12/04 14:54:15;;;;;;;20.27;16.77;;;3.40;1.00;;;;;;5047255;28;20253;-81
2021/12/04 14:56:41;;;;;;;22.60;18.48;;;3.40;1.00;;;;;;5034104;28;20247;-78
2021/12/04 14:59:16;;;;;;;20.58;17.10;;;3.30;1.00;;;;;;5019188;28;20218;-78
2021/12/04 15:01:44;;;;;;;20.20;16.13;;;3.30;1.00;;;;;;5022348;28;20262;-81
2021/12/04 15:04:11;;;;;;;22.67;17.65;;;3.30;1.00;;;;;;5041496;28;20833;-79
2021/12/04 15:06:39;;;;;;;19.23;15.73;;;3.30;1.00;;;;;;5023204;28;20233;-81
2021/12/04 15:09:09;;;;;;;19.80;15.68;;;3.30;1.00;;;;;;5022890;28;20221;-83
2021/12/04 15:11:38;;;;;;;22.33;15.73;;;3.30;1.00;;;;;;5028102;28;20330;-85
2021/12/04 15:14:09;;;;;;;18.55;16.63;;;3.30;1.00;;;;;;5022404;28;20261;-81
2021/12/04 15:16:39;;;;;;;18.48;15.75;;;3.20;1.00;;;;;;5032308;28;20227;-82
2021/12/04 15:19:15;;;;;;;18.23;15.27;;;3.20;1.00;;;;;;5031187;28;20237;-81
2021/12/04 15:21:48;;;;;;;19.33;15.25;;;3.10;1.00;;;;;;5039052;28;20222;-79
2021/12/04 15:24:22;;;;;;;22.67;17.85;;;3.00;1.00;;;;;;5017032;28;20350;-80
2021/12/04 15:26:51;;;;;;;22.98;18.83;;;3.00;1.00;;;;;;5033209;28;20230;-82
2021/12/04 15:29:20;;;;;;;19.42;16.85;;;3.00;1.00;;;;;;5020930;28;20233;-80
2021/12/04 15:31:48;;;;;;;19.30;17.17;;;3.00;1.00;;;;;;5035949;28;20238;-79
2021/12/04 15:34:16;;;;;;;35.67;25.55;;;3.00;1.00;;;;;;5038149;28;20750;-80
2021/12/04 15:36:47;;;;;;;25.13;19.65;;;3.00;1.00;;;;;;5011799;28;20245;-81
2021/12/04 15:39:29;;;;;;;21.90;16.77;;;3.00;1.00;;;;;;5014339;28;20700;-80
2021/12/04 15:42:12;;;;;;;21.30;17.50;;;3.00;1.00;;;;;;5026709;28;20241;-80
2021/12/04 15:44:52;;;;;;;23.83;18.35;;;3.00;1.00;;;;;;5026539;28;20736;-81
2021/12/04 15:47:26;;;;;;;25.55;19.58;;;3.00;1.00;;;;;;5022193;28;20214;-78
2021/12/04 15:53:07;;;;;;;21.58;15.68;;;3.00;1.00;;;;;;5045482;28;20238;-78
2021/12/04 15:55:37;;;;;;;23.65;18.23;;;3.00;1.00;;;;;;5031999;28;20293;-80
2021/12/04 15:58:07;;;;;;;18.35;15.18;;;3.00;1.00;;;;;;5031121;28;20233;-80
2021/12/04 16:00:36;;;;;;;16.25;14.35;;;3.00;1.00;;;;;;5029268;28;20218;-81
2021/12/04 16:03:06;;;;;;;19.02;13.07;;;3.00;1.00;;;;;;5026150;28;20246;-79
2021/12/04 16:05:41;;;;;;;14.88;13.05;;;3.00;1.00;;;;;;5025693;28;20230;-83
2021/12/04 16:08:12;;;;;;;14.63;10.90;;;3.00;1.00;;;;;;5015172;28;20308;-80
2021/12/04 16:10:40;;;;;;;18.98;13.77;;;2.90;1.00;;;;;;5021230;28;20233;-80
2021/12/04 16:13:09;;;;;;;13.55;10.48;;;3.00;1.00;;;;;;5023040;28;20238;-81
2021/12/04 16:15:36;;;;;;;14.80;12.60;;;3.00;1.00;;;;;;5025662;28;20211;-78